sensor_id;sensor_type;location;lat;lon;timestamp;pressure;altitude;pressure_sealevel;temperature;humidity
64687;BME280;51113;53.646;-113.674;2023-05-22T00:01:46;93060.03;;;27.23;28.04
64687;BME280;51113;53.646;-113.674;2023-05-22T00:04:16;93055.81;;;27.08;27.98
64687;BME280;51113;53.646;-113.674;2023-05-22T00:06:48;93066.09;;;26.99;27.93
64687;BME280;51113;53.646;-113.674;2023-05-22T00:09:17;93056.19;;;27.10;27.99
64687;BME280;51113;53.646;-113.674;2023-05-22T00:11:46;93057.66;;;26.93;28.03
64687;BME280;51113;53.646;-113.674;2023-05-22T00:14:15;93045.13;;;26.97;27.92
64687;BME280;51113;53.646;-113.674;2023-05-22T00:16:43;93039.78;;;26.97;27.89
64687;BME280;51113;53.646;-113.674;2023-05-22T00:19:13;93034.81;;;26.96;27.84
64687;BME280;51113;53.646;-113.674;2023-05-22T00:21:44;93035.19;;;26.87;28.03
64687;BME280;51113;53.646;-113.674;2023-05-22T00:24:13;93031.00;;;26.93;28.76
64687;BME280;51113;53.646;-113.674;2023-05-22T00:26:42;93037.91;;;27.01;27.68
64687;BME280;51113;53.646;-113.674;2023-05-22T00:29:10;93023.38;;;26.95;27.79
64687;BME280;51113;53.646;-113.674;2023-05-22T00:31:39;93018.03;;;26.92;27.98
64687;BME280;51113;53.646;-113.674;2023-05-22T00:34:07;93014.97;;;26.83;27.72
64687;BME280;51113;53.646;-113.674;2023-05-22T00:36:36;93016.53;;;26.94;27.33
64687;BME280;51113;53.646;-113.674;2023-05-22T00:39:05;93003.91;;;26.70;28.03
64687;BME280;51113;53.646;-113.674;2023-05-22T00:41:33;93002.38;;;26.65;27.61
64687;BME280;51113;53.646;-113.674;2023-05-22T00:44:02;93002.41;;;26.73;28.05
64687;BME280;51113;53.646;-113.674;2023-05-22T00:46:32;92998.19;;;26.68;27.94
64687;BME280;51113;53.646;-113.674;2023-05-22T00:49:00;92991.34;;;26.67;27.95
64687;BME280;51113;53.646;-113.674;2023-05-22T00:51:30;92997.78;;;26.59;28.19
64687;BME280;51113;53.646;-113.674;2023-05-22T00:53:59;92993.25;;;26.63;28.02
64687;BME280;51113;53.646;-113.674;2023-05-22T00:56:28;92988.31;;;26.72;28.46
64687;BME280;51113;53.646;-113.674;2023-05-22T00:58:57;92982.22;;;26.68;28.24
64687;BME280;51113;53.646;-113.674;2023-05-22T01:01:26;92984.13;;;26.67;28.30
64687;BME280;51113;53.646;-113.674;2023-05-22T01:04:00;92979.91;;;26.56;28.78
64687;BME280;51113;53.646;-113.674;2023-05-22T01:06:29;92978.34;;;26.48;28.55
64687;BME280;51113;53.646;-113.674;2023-05-22T01:08:59;92976.06;;;26.46;28.59
64687;BME280;51113;53.646;-113.674;2023-05-22T01:11:36;92978.25;;;26.26;29.10
64687;BME280;51113;53.646;-113.674;2023-05-22T01:30:49;92963.34;;;26.07;28.85
64687;BME280;51113;53.646;-113.674;2023-05-22T01:33:21;92962.22;;;26.08;28.92
64687;BME280;51113;53.646;-113.674;2023-05-22T01:35:56;92959.16;;;26.06;28.60
64687;BME280;51113;53.646;-113.674;2023-05-22T01:38:27;92963.69;;;25.99;28.80
64687;BME280;51113;53.646;-113.674;2023-05-22T01:40:57;92952.28;;;25.98;28.94
64687;BME280;51113;53.646;-113.674;2023-05-22T01:43:26;92960.59;;;25.90;28.89
64687;BME280;51113;53.646;-113.674;2023-05-22T01:45:54;92959.09;;;25.92;28.99
64687;BME280;51113;53.646;-113.674;2023-05-22T01:48:23;92952.28;;;25.95;28.97
64687;BME280;51113;53.646;-113.674;2023-05-22T01:50:52;92957.13;;;25.75;29.38
64687;BME280;51113;53.646;-113.674;2023-05-22T01:53:32;92953.97;;;25.62;29.59
64687;BME280;51113;53.646;-113.674;2023-05-22T01:56:14;92956.00;;;25.80;29.38
64687;BME280;51113;53.646;-113.674;2023-05-22T02:01:35;92951.78;;;25.71;29.23
64687;BME280;51113;53.646;-113.674;2023-05-22T02:04:05;92950.53;;;25.58;29.69
64687;BME280;51113;53.646;-113.674;2023-05-22T02:06:37;92957.28;;;25.45;30.10
64687;BME280;51113;53.646;-113.674;2023-05-22T02:09:07;92944.72;;;25.38;30.36
64687;BME280;51113;53.646;-113.674;2023-05-22T02:11:36;92948.13;;;25.39;29.90
64687;BME280;51113;53.646;-113.674;2023-05-22T02:14:06;92955.78;;;25.44;29.88
64687;BME280;51113;53.646;-113.674;2023-05-22T02:16:36;92957.94;;;25.28;30.37
64687;BME280;51113;53.646;-113.674;2023-05-22T02:19:05;92955.59;;;25.19;30.38
64687;BME280;51113;53.646;-113.674;2023-05-22T02:21:34;92960.88;;;25.16;30.57
64687;BME280;51113;53.646;-113.674;2023-05-22T02:24:03;92954.00;;;25.07;30.71
64687;BME280;51113;53.646;-113.674;2023-05-22T02:26:31;92957.38;;;25.04;30.89
64687;BME280;51113;53.646;-113.674;2023-05-22T02:29:00;92960.22;;;24.85;31.04
64687;BME280;51113;53.646;-113.674;2023-05-22T02:31:28;92957.38;;;25.04;30.64
64687;BME280;51113;53.646;-113.674;2023-05-22T02:33:57;92964.03;;;24.84;30.96
64687;BME280;51113;53.646;-113.674;2023-05-22T02:36:25;92974.03;;;24.61;31.70
64687;BME280;51113;53.646;-113.674;2023-05-22T02:38:54;92967.97;;;24.60;31.59
64687;BME280;51113;53.646;-113.674;2023-05-22T02:41:23;92970.47;;;24.46;31.91
64687;BME280;51113;53.646;-113.674;2023-05-22T02:43:51;92971.28;;;24.50;31.79
64687;BME280;51113;53.646;-113.674;2023-05-22T02:46:20;92971.56;;;24.41;32.15
64687;BME280;51113;53.646;-113.674;2023-05-22T02:48:48;92961.72;;;24.42;31.99
64687;BME280;51113;53.646;-113.674;2023-05-22T02:51:17;92969.94;;;24.30;32.30
64687;BME280;51113;53.646;-113.674;2023-05-22T02:53:45;92975.09;;;24.19;32.58
64687;BME280;51113;53.646;-113.674;2023-05-22T02:56:14;92973.94;;;24.16;32.74
64687;BME280;51113;53.646;-113.674;2023-05-22T02:58:43;92969.56;;;24.01;33.19
64687;BME280;51113;53.646;-113.674;2023-05-22T03:01:12;92971.22;;;24.13;33.10
64687;BME280;51113;53.646;-113.674;2023-05-22T03:03:41;92964.31;;;24.05;33.29
64687;BME280;51113;53.646;-113.674;2023-05-22T03:06:11;92972.53;;;23.96;33.76
64687;BME280;51113;53.646;-113.674;2023-05-22T03:08:39;92971.69;;;23.89;33.79
64687;BME280;51113;53.646;-113.674;2023-05-22T03:11:10;92968.75;;;23.67;34.29
64687;BME280;51113;53.646;-113.674;2023-05-22T03:13:39;92972.50;;;23.63;34.61
64687;BME280;51113;53.646;-113.674;2023-05-22T03:16:07;92970.34;;;23.72;34.43
64687;BME280;51113;53.646;-113.674;2023-05-22T03:18:36;92968.53;;;23.53;35.21
64687;BME280;51113;53.646;-113.674;2023-05-22T03:21:04;92958.16;;;23.41;35.44
64687;BME280;51113;53.646;-113.674;2023-05-22T03:23:33;92966.72;;;23.31;35.79
64687;BME280;51113;53.646;-113.674;2023-05-22T03:26:02;92956.94;;;23.35;35.40
64687;BME280;51113;53.646;-113.674;2023-05-22T03:28:30;92964.00;;;23.27;35.61
64687;BME280;51113;53.646;-113.674;2023-05-22T03:30:59;92962.38;;;23.19;35.91
64687;BME280;51113;53.646;-113.674;2023-05-22T03:33:28;92963.97;;;23.01;36.22
64687;BME280;51113;53.646;-113.674;2023-05-22T03:35:56;92963.56;;;22.99;36.25
64687;BME280;51113;53.646;-113.674;2023-05-22T03:38:25;92977.53;;;22.96;36.27
64687;BME280;51113;53.646;-113.674;2023-05-22T03:40:53;92973.47;;;23.02;36.26
64687;BME280;51113;53.646;-113.674;2023-05-22T03:43:22;92970.47;;;22.80;36.81
64687;BME280;51113;53.646;-113.674;2023-05-22T03:45:50;92980.44;;;22.68;37.12
64687;BME280;51113;53.646;-113.674;2023-05-22T03:48:19;92984.22;;;22.47;37.77
64687;BME280;51113;53.646;-113.674;2023-05-22T03:50:48;92978.88;;;22.44;37.94
64687;BME280;51113;53.646;-113.674;2023-05-22T03:53:17;92991.06;;;22.29;38.46
64687;BME280;51113;53.646;-113.674;2023-05-22T03:55:45;92997.41;;;22.24;38.30
64687;BME280;51113;53.646;-113.674;2023-05-22T03:58:14;92993.88;;;22.17;38.58
64687;BME280;51113;53.646;-113.674;2023-05-22T04:00:42;92999.75;;;21.91;39.38
64687;BME280;51113;53.646;-113.674;2023-05-22T04:03:13;93005.03;;;21.91;39.64
64687;BME280;51113;53.646;-113.674;2023-05-22T04:05:46;93006.50;;;21.88;39.43
64687;BME280;51113;53.646;-113.674;2023-05-22T04:08:16;93005.78;;;21.72;39.48
64687;BME280;51113;53.646;-113.674;2023-05-22T04:10:44;93004.25;;;21.71;39.58
64687;BME280;51113;53.646;-113.674;2023-05-22T04:13:16;93005.00;;;21.72;39.49
64687;BME280;51113;53.646;-113.674;2023-05-22T04:15:44;93009.38;;;21.64;39.77
64687;BME280;51113;53.646;-113.674;2023-05-22T04:18:13;93008.22;;;21.46;40.48
64687;BME280;51113;53.646;-113.674;2023-05-22T04:20:42;93003.69;;;21.46;40.05
64687;BME280;51113;53.646;-113.674;2023-05-22T04:23:11;93001.25;;;21.38;40.49
64687;BME280;51113;53.646;-113.674;2023-05-22T04:25:40;93003.31;;;21.28;40.84
64687;BME280;51113;53.646;-113.674;2023-05-22T04:28:08;93005.53;;;21.26;40.81
64687;BME280;51113;53.646;-113.674;2023-05-22T04:30:37;93006.84;;;21.20;40.91
64687;BME280;51113;53.646;-113.674;2023-05-22T04:33:07;93003.63;;;21.11;41.23
64687;BME280;51113;53.646;-113.674;2023-05-22T04:35:36;92999.78;;;21.09;41.44
64687;BME280;51113;53.646;-113.674;2023-05-22T04:38:04;93001.31;;;21.10;41.29
64687;BME280;51113;53.646;-113.674;2023-05-22T04:40:32;93005.69;;;21.02;41.59
64687;BME280;51113;53.646;-113.674;2023-05-22T04:43:01;92993.22;;;20.87;41.80
64687;BME280;51113;53.646;-113.674;2023-05-22T04:45:30;92999.44;;;20.79;42.34
64687;BME280;51113;53.646;-113.674;2023-05-22T04:47:59;92988.34;;;20.57;43.27
64687;BME280;51113;53.646;-113.674;2023-05-22T04:50:29;92990.03;;;20.50;43.06
64687;BME280;51113;53.646;-113.674;2023-05-22T04:52:59;92991.56;;;20.51;43.05
64687;BME280;51113;53.646;-113.674;2023-05-22T04:55:31;92999.44;;;20.35;43.42
64687;BME280;51113;53.646;-113.674;2023-05-22T04:58:03;92990.03;;;20.22;44.02
64687;BME280;51113;53.646;-113.674;2023-05-22T05:00:32;92987.03;;;20.08;44.25
64687;BME280;51113;53.646;-113.674;2023-05-22T05:03:02;92983.00;;;19.98;44.67
64687;BME280;51113;53.646;-113.674;2023-05-22T05:05:31;92988.72;;;19.88;45.00
64687;BME280;51113;53.646;-113.674;2023-05-22T05:08:00;92988.00;;;19.75;45.50
64687;BME280;51113;53.646;-113.674;2023-05-22T05:10:28;92984.03;;;19.81;45.11
64687;BME280;51113;53.646;-113.674;2023-05-22T05:12:57;92986.59;;;19.65;45.96
64687;BME280;51113;53.646;-113.674;2023-05-22T05:15:26;92988.25;;;19.46;46.69
64687;BME280;51113;53.646;-113.674;2023-05-22T05:17:55;92984.94;;;19.49;46.34
64687;BME280;51113;53.646;-113.674;2023-05-22T05:20:23;92988.81;;;19.39;46.73
64687;BME280;51113;53.646;-113.674;2023-05-22T05:22:52;92986.59;;;19.41;46.64
64687;BME280;51113;53.646;-113.674;2023-05-22T05:25:21;92986.72;;;19.20;47.40
64687;BME280;51113;53.646;-113.674;2023-05-22T05:27:49;92995.28;;;19.17;47.43
64687;BME280;51113;53.646;-113.674;2023-05-22T05:30:18;92982.44;;;19.03;48.05
64687;BME280;51113;53.646;-113.674;2023-05-22T05:32:47;92985.41;;;19.02;48.05
64687;BME280;51113;53.646;-113.674;2023-05-22T05:35:15;92985.84;;;19.04;47.92
64687;BME280;51113;53.646;-113.674;2023-05-22T05:37:44;92991.88;;;18.92;48.37
64687;BME280;51113;53.646;-113.674;2023-05-22T05:40:13;93028.13;;;18.62;50.15
64687;BME280;51113;53.646;-113.674;2023-05-22T05:42:41;93034.19;;;18.21;50.09
64687;BME280;51113;53.646;-113.674;2023-05-22T05:45:11;93034.03;;;18.05;50.76
64687;BME280;51113;53.646;-113.674;2023-05-22T05:47:40;93030.63;;;18.05;50.35
64687;BME280;51113;53.646;-113.674;2023-05-22T05:50:09;93007.16;;;18.21;50.16
64687;BME280;51113;53.646;-113.674;2023-05-22T05:52:38;92988.78;;;18.33;50.02
64687;BME280;51113;53.646;-113.674;2023-05-22T05:55:06;92986.47;;;18.64;49.07
64687;BME280;51113;53.646;-113.674;2023-05-22T05:57:36;92990.63;;;18.65;49.11
64687;BME280;51113;53.646;-113.674;2023-05-22T06:00:05;93026.47;;;18.37;50.72
64687;BME280;51113;53.646;-113.674;2023-05-22T06:02:36;93029.72;;;18.22;50.76
64687;BME280;51113;53.646;-113.674;2023-05-22T06:05:05;93024.47;;;18.01;50.77
64687;BME280;51113;53.646;-113.674;2023-05-22T06:07:36;93006.69;;;18.19;50.14
64687;BME280;51113;53.646;-113.674;2023-05-22T06:10:07;92985.53;;;18.48;49.33
64687;BME280;51113;53.646;-113.674;2023-05-22T06:12:36;92969.75;;;18.48;49.73
64687;BME280;51113;53.646;-113.674;2023-05-22T06:15:06;92991.16;;;18.26;50.44
64687;BME280;51113;53.646;-113.674;2023-05-22T06:17:35;92992.41;;;18.07;51.20
64687;BME280;51113;53.646;-113.674;2023-05-22T06:20:07;92994.28;;;17.65;52.35
64687;BME280;51113;53.646;-113.674;2023-05-22T06:22:36;92985.72;;;17.77;52.40
64687;BME280;51113;53.646;-113.674;2023-05-22T06:25:05;92987.19;;;17.66;52.90
64687;BME280;51113;53.646;-113.674;2023-05-22T06:27:34;92983.66;;;17.32;53.38
64687;BME280;51113;53.646;-113.674;2023-05-22T06:30:02;92974.28;;;17.02;54.70
64687;BME280;51113;53.646;-113.674;2023-05-22T06:32:31;92974.34;;;16.85;55.03
64687;BME280;51113;53.646;-113.674;2023-05-22T06:35:00;92986.72;;;16.75;55.60
64687;BME280;51113;53.646;-113.674;2023-05-22T06:37:28;92978.13;;;16.66;55.80
64687;BME280;51113;53.646;-113.674;2023-05-22T06:40:00;92970.88;;;16.55;56.52
64687;BME280;51113;53.646;-113.674;2023-05-22T06:42:28;92964.25;;;16.66;55.57
64687;BME280;51113;53.646;-113.674;2023-05-22T06:44:57;92980.59;;;16.54;56.35
64687;BME280;51113;53.646;-113.674;2023-05-22T06:47:26;92975.19;;;16.59;55.55
64687;BME280;51113;53.646;-113.674;2023-05-22T06:49:54;92976.75;;;16.52;56.07
64687;BME280;51113;53.646;-113.674;2023-05-22T06:52:23;92982.00;;;16.52;56.05
64687;BME280;51113;53.646;-113.674;2023-05-22T06:54:51;92981.22;;;16.51;55.85
64687;BME280;51113;53.646;-113.674;2023-05-22T06:57:20;92975.22;;;16.51;56.33
64687;BME280;51113;53.646;-113.674;2023-05-22T06:59:51;92981.22;;;16.51;56.19
64687;BME280;51113;53.646;-113.674;2023-05-22T07:02:19;92977.25;;;16.45;56.89
64687;BME280;51113;53.646;-113.674;2023-05-22T07:04:48;92980.03;;;16.40;57.04
64687;BME280;51113;53.646;-113.674;2023-05-22T07:07:17;92968.81;;;16.22;57.83
64687;BME280;51113;53.646;-113.674;2023-05-22T07:09:45;92964.22;;;16.10;58.40
64687;BME280;51113;53.646;-113.674;2023-05-22T07:12:14;92968.22;;;16.17;58.54
64687;BME280;51113;53.646;-113.674;2023-05-22T07:14:43;92966.69;;;16.07;59.21
64687;BME280;51113;53.646;-113.674;2023-05-22T07:17:11;92960.69;;;15.89;59.46
64687;BME280;51113;53.646;-113.674;2023-05-22T07:19:40;92962.72;;;15.75;60.31
64687;BME280;51113;53.646;-113.674;2023-05-22T07:22:08;92962.41;;;15.76;60.52
64687;BME280;51113;53.646;-113.674;2023-05-22T07:24:37;92959.16;;;15.71;61.11
64687;BME280;51113;53.646;-113.674;2023-05-22T07:27:06;92949.16;;;15.73;61.36
64687;BME280;51113;53.646;-113.674;2023-05-22T07:29:36;92948.06;;;15.74;61.57
64687;BME280;51113;53.646;-113.674;2023-05-22T07:32:05;92952.09;;;15.63;62.21
64687;BME280;51113;53.646;-113.674;2023-05-22T07:34:34;92948.06;;;15.57;62.82
64687;BME280;51113;53.646;-113.674;2023-05-22T07:37:07;92946.97;;;15.49;63.29
64687;BME280;51113;53.646;-113.674;2023-05-22T07:39:35;92958.38;;;15.44;63.56
64687;BME280;51113;53.646;-113.674;2023-05-22T07:42:04;92950.06;;;15.42;63.72
64687;BME280;51113;53.646;-113.674;2023-05-22T07:44:33;92957.91;;;15.42;64.14
64687;BME280;51113;53.646;-113.674;2023-05-22T07:47:02;92949.13;;;15.38;63.95
64687;BME280;51113;53.646;-113.674;2023-05-22T07:49:30;92938.81;;;15.25;64.43
64687;BME280;51113;53.646;-113.674;2023-05-22T07:51:59;92938.03;;;15.15;65.48
64687;BME280;51113;53.646;-113.674;2023-05-22T07:54:28;92937.41;;;15.10;65.48
64687;BME280;51113;53.646;-113.674;2023-05-22T07:56:56;92935.25;;;15.12;65.34
64687;BME280;51113;53.646;-113.674;2023-05-22T07:59:24;92923.06;;;14.99;65.72
64687;BME280;51113;53.646;-113.674;2023-05-22T08:01:53;92917.22;;;15.02;66.02
64687;BME280;51113;53.646;-113.674;2023-05-22T08:04:24;92919.66;;;14.90;66.20
64687;BME280;51113;53.646;-113.674;2023-05-22T08:06:53;92915.97;;;14.91;66.01
64687;BME280;51113;53.646;-113.674;2023-05-22T08:09:22;92922.44;;;14.84;66.58
64687;BME280;51113;53.646;-113.674;2023-05-22T08:11:51;92935.31;;;14.72;66.76
64687;BME280;51113;53.646;-113.674;2023-05-22T08:14:20;92931.28;;;14.66;67.22
64687;BME280;51113;53.646;-113.674;2023-05-22T08:16:49;92927.75;;;14.62;67.16
64687;BME280;51113;53.646;-113.674;2023-05-22T08:19:18;92926.34;;;14.56;67.43
64687;BME280;51113;53.646;-113.674;2023-05-22T08:21:47;92921.25;;;14.51;67.26
64687;BME280;51113;53.646;-113.674;2023-05-22T08:24:15;92918.88;;;14.41;67.15
64687;BME280;51113;53.646;-113.674;2023-05-22T08:26:43;92917.16;;;14.36;67.59
64687;BME280;51113;53.646;-113.674;2023-05-22T08:29:12;92919.28;;;14.26;68.34
64687;BME280;51113;53.646;-113.674;2023-05-22T08:31:40;92920.00;;;14.17;68.84
64687;BME280;51113;53.646;-113.674;2023-05-22T08:34:09;92934.22;;;14.03;68.93
64687;BME280;51113;53.646;-113.674;2023-05-22T08:36:38;92936.78;;;13.94;68.91
64687;BME280;51113;53.646;-113.674;2023-05-22T08:39:08;92926.94;;;13.91;69.93
64687;BME280;51113;53.646;-113.674;2023-05-22T08:41:37;92909.53;;;13.86;70.30
64687;BME280;51113;53.646;-113.674;2023-05-22T08:44:06;92904.53;;;13.99;69.94
64687;BME280;51113;53.646;-113.674;2023-05-22T08:46:34;92909.81;;;14.07;70.07
64687;BME280;51113;53.646;-113.674;2023-05-22T08:49:04;92913.31;;;14.03;70.58
64687;BME280;51113;53.646;-113.674;2023-05-22T08:51:37;92913.63;;;14.01;70.47
64687;BME280;51113;53.646;-113.674;2023-05-22T08:54:06;92915.28;;;13.97;70.82
64687;BME280;51113;53.646;-113.674;2023-05-22T08:56:35;92912.97;;;13.96;70.58
64687;BME280;51113;53.646;-113.674;2023-05-22T08:59:19;92919.56;;;13.93;70.92
64687;BME280;51113;53.646;-113.674;2023-05-22T09:01:48;92928.13;;;13.85;70.98
64687;BME280;51113;53.646;-113.674;2023-05-22T09:04:20;92930.25;;;13.83;70.85
64687;BME280;51113;53.646;-113.674;2023-05-22T09:06:51;92918.69;;;13.75;70.87
64687;BME280;51113;53.646;-113.674;2023-05-22T09:09:20;92912.16;;;13.64;70.85
64687;BME280;51113;53.646;-113.674;2023-05-22T09:11:49;92907.38;;;13.57;70.81
64687;BME280;51113;53.646;-113.674;2023-05-22T09:14:18;92914.84;;;13.50;70.50
64687;BME280;51113;53.646;-113.674;2023-05-22T09:16:49;92909.25;;;13.43;70.64
64687;BME280;51113;53.646;-113.674;2023-05-22T09:19:18;92902.50;;;13.42;70.22
64687;BME280;51113;53.646;-113.674;2023-05-22T09:21:47;92901.66;;;13.33;70.03
64687;BME280;51113;53.646;-113.674;2023-05-22T09:24:16;92899.13;;;13.42;69.53
64687;BME280;51113;53.646;-113.674;2023-05-22T09:26:44;92906.88;;;13.33;69.49
64687;BME280;51113;53.646;-113.674;2023-05-22T09:29:13;92901.66;;;13.33;69.47
64687;BME280;51113;53.646;-113.674;2023-05-22T09:31:42;92908.53;;;13.29;69.53
64687;BME280;51113;53.646;-113.674;2023-05-22T09:34:12;92897.84;;;13.17;69.85
64687;BME280;51113;53.646;-113.674;2023-05-22T09:36:44;92904.69;;;13.13;70.02
64687;BME280;51113;53.646;-113.674;2023-05-22T09:39:13;92905.59;;;12.94;70.41
64687;BME280;51113;53.646;-113.674;2023-05-22T09:41:43;92917.13;;;12.80;70.79
64687;BME280;51113;53.646;-113.674;2023-05-22T09:44:13;92920.41;;;12.72;71.66
64687;BME280;51113;53.646;-113.674;2023-05-22T09:46:45;92918.38;;;12.82;70.93
64687;BME280;51113;53.646;-113.674;2023-05-22T09:49:14;92916.91;;;12.90;70.59
64687;BME280;51113;53.646;-113.674;2023-05-22T09:51:44;92920.00;;;12.78;70.93
64687;BME280;51113;53.646;-113.674;2023-05-22T09:54:18;92924.19;;;12.66;71.22
64687;BME280;51113;53.646;-113.674;2023-05-22T09:56:48;92937.50;;;12.50;71.96
64687;BME280;51113;53.646;-113.674;2023-05-22T09:59:21;92929.09;;;12.40;72.22
64687;BME280;51113;53.646;-113.674;2023-05-22T10:01:50;92930.63;;;12.41;72.48
64687;BME280;51113;53.646;-113.674;2023-05-22T10:04:21;92931.22;;;12.38;72.84
64687;BME280;51113;53.646;-113.674;2023-05-22T10:06:52;92941.53;;;12.29;73.06
64687;BME280;51113;53.646;-113.674;2023-05-22T10:09:23;92945.97;;;12.28;73.36
64687;BME280;51113;53.646;-113.674;2023-05-22T10:11:54;92926.78;;;12.24;73.42
64687;BME280;51113;53.646;-113.674;2023-05-22T10:14:25;92926.78;;;12.24;73.44
64687;BME280;51113;53.646;-113.674;2023-05-22T10:16:57;92923.09;;;12.25;73.41
64687;BME280;51113;53.646;-113.674;2023-05-22T10:19:29;92931.13;;;12.43;73.29
64687;BME280;51113;53.646;-113.674;2023-05-22T10:21:59;92932.28;;;12.50;73.37
64687;BME280;51113;53.646;-113.674;2023-05-22T10:24:28;92939.41;;;12.58;73.42
64687;BME280;51113;53.646;-113.674;2023-05-22T10:26:58;92940.38;;;12.63;73.83
64687;BME280;51113;53.646;-113.674;2023-05-22T10:29:34;92935.94;;;12.63;73.96
64687;BME280;51113;53.646;-113.674;2023-05-22T10:32:22;92933.16;;;12.59;74.11
64687;BME280;51113;53.646;-113.674;2023-05-22T10:37:44;92948.97;;;12.63;74.30
64687;BME280;51113;53.646;-113.674;2023-05-22T10:42:49;92951.75;;;12.80;74.77
64687;BME280;51113;53.646;-113.674;2023-05-22T10:45:18;92945.59;;;12.76;74.89
64687;BME280;51113;53.646;-113.674;2023-05-22T10:47:47;92944.53;;;12.77;74.90
64687;BME280;51113;53.646;-113.674;2023-05-22T10:50:16;92942.50;;;12.74;75.68
64687;BME280;51113;53.646;-113.674;2023-05-22T10:52:46;92933.81;;;12.79;75.59
64687;BME280;51113;53.646;-113.674;2023-05-22T10:55:21;92937.28;;;12.74;75.67
64687;BME280;51113;53.646;-113.674;2023-05-22T10:57:53;92933.63;;;12.75;75.72
64687;BME280;51113;53.646;-113.674;2023-05-22T11:00:23;92931.41;;;12.82;75.52
64687;BME280;51113;53.646;-113.674;2023-05-22T11:03:03;92919.34;;;12.73;76.01
64687;BME280;51113;53.646;-113.674;2023-05-22T11:05:51;92934.00;;;12.69;76.23
64687;BME280;51113;53.646;-113.674;2023-05-22T11:11:10;92924.75;;;12.63;76.42
64687;BME280;51113;53.646;-113.674;2023-05-22T11:13:40;92924.47;;;12.64;76.39
64687;BME280;51113;53.646;-113.674;2023-05-22T11:16:08;92931.31;;;12.60;76.95
64687;BME280;51113;53.646;-113.674;2023-05-22T11:18:37;92931.31;;;12.60;76.69
64687;BME280;51113;53.646;-113.674;2023-05-22T11:21:08;92936.91;;;12.53;77.08
64687;BME280;51113;53.646;-113.674;2023-05-22T11:23:38;92944.16;;;12.43;77.06
64687;BME280;51113;53.646;-113.674;2023-05-22T11:26:20;92946.53;;;12.25;77.62
64687;BME280;51113;53.646;-113.674;2023-05-22T11:28:54;92947.94;;;12.04;78.42
64687;BME280;51113;53.646;-113.674;2023-05-22T11:31:23;92940.78;;;11.96;78.59
64687;BME280;51113;53.646;-113.674;2023-05-22T11:33:52;92938.09;;;11.87;79.04
64687;BME280;51113;53.646;-113.674;2023-05-22T11:36:21;92932.31;;;11.90;78.76
64687;BME280;51113;53.646;-113.674;2023-05-22T11:38:50;92917.09;;;11.98;78.31
64687;BME280;51113;53.646;-113.674;2023-05-22T11:41:28;92926.66;;;12.02;78.30
64687;BME280;51113;53.646;-113.674;2023-05-22T11:44:00;92927.63;;;12.06;77.88
64687;BME280;51113;53.646;-113.674;2023-05-22T11:46:28;92928.09;;;12.08;77.80
64687;BME280;51113;53.646;-113.674;2023-05-22T11:48:57;92928.97;;;12.04;78.28
64687;BME280;51113;53.646;-113.674;2023-05-22T11:51:26;92926.84;;;12.06;78.45
64687;BME280;51113;53.646;-113.674;2023-05-22T11:53:56;92917.59;;;12.13;78.03
64687;BME280;51113;53.646;-113.674;2023-05-22T11:56:24;92916.94;;;12.21;77.81
64687;BME280;51113;53.646;-113.674;2023-05-22T11:58:53;92910.88;;;12.26;77.97
64687;BME280;51113;53.646;-113.674;2023-05-22T12:01:21;92915.19;;;12.31;77.84
64687;BME280;51113;53.646;-113.674;2023-05-22T12:03:50;92911.63;;;12.26;77.75
64687;BME280;51113;53.646;-113.674;2023-05-22T12:06:19;92926.56;;;12.21;78.10
64687;BME280;51113;53.646;-113.674;2023-05-22T12:08:48;92922.72;;;12.18;78.01
64687;BME280;51113;53.646;-113.674;2023-05-22T12:11:17;92925.31;;;12.18;78.30
64687;BME280;51113;53.646;-113.674;2023-05-22T12:13:46;92925.91;;;12.15;78.12
64687;BME280;51113;53.646;-113.674;2023-05-22T12:16:19;92928.22;;;12.17;78.50
64687;BME280;51113;53.646;-113.674;2023-05-22T12:18:52;92918.75;;;12.21;78.47
64687;BME280;51113;53.646;-113.674;2023-05-22T12:21:21;92912.59;;;12.31;78.29
64687;BME280;51113;53.646;-113.674;2023-05-22T12:23:50;92904.50;;;12.46;77.90
64687;BME280;51113;53.646;-113.674;2023-05-22T12:26:19;92904.13;;;12.52;77.63
64687;BME280;51113;53.646;-113.674;2023-05-22T12:28:52;92893.97;;;12.65;77.64
64687;BME280;51113;53.646;-113.674;2023-05-22T12:31:21;92898.78;;;12.71;77.30
64687;BME280;51113;53.646;-113.674;2023-05-22T12:33:56;92888.16;;;12.81;77.18
64687;BME280;51113;53.646;-113.674;2023-05-22T12:36:38;92890.75;;;12.95;77.30
64687;BME280;51113;53.646;-113.674;2023-05-22T12:39:14;92890.03;;;13.03;77.25
64687;BME280;51113;53.646;-113.674;2023-05-22T12:41:44;92894.75;;;13.15;77.05
64687;BME280;51113;53.646;-113.674;2023-05-22T12:44:14;92888.44;;;13.30;76.95
64687;BME280;51113;53.646;-113.674;2023-05-22T12:46:43;92890.41;;;13.46;76.21
64687;BME280;51113;53.646;-113.674;2023-05-22T12:49:12;92887.91;;;13.64;75.74
64687;BME280;51113;53.646;-113.674;2023-05-22T12:51:40;92888.63;;;13.78;75.36
64687;BME280;51113;53.646;-113.674;2023-05-22T12:54:09;92881.31;;;13.88;74.99
64687;BME280;51113;53.646;-113.674;2023-05-22T12:56:38;92885.34;;;13.95;74.77
64687;BME280;51113;53.646;-113.674;2023-05-22T12:59:06;92875.88;;;14.07;74.32
64687;BME280;51113;53.646;-113.674;2023-05-22T13:01:35;92875.00;;;14.20;74.11
64687;BME280;51113;53.646;-113.674;2023-05-22T13:04:04;92875.97;;;14.33;73.43
64687;BME280;51113;53.646;-113.674;2023-05-22T13:06:32;92880.19;;;14.43;73.60
64687;BME280;51113;53.646;-113.674;2023-05-22T13:09:01;92883.25;;;14.45;73.03
64687;BME280;51113;53.646;-113.674;2023-05-22T13:11:30;92886.69;;;14.54;72.99